Time;durP1;ratioP1;P1;durP2;ratioP2;P2;SDS_P1;SDS_P2;PMS_P1;PMS_P2;Temp;Humidity;BMP_temperature;BMP_pressure;BME280_temperature;BME280_humidity;BME280_pressure;Samples;Min_cycle;Max_cycle;Signal;HPM_P1;HPM_P2
2021/01/13 00:00:57;;;;;;;11.73;3.07;;;;;;;;;;4990466;28;20437;-79
2021/01/13 00:03:24;;;;;;;14.25;3.42;;;;;;;;;;4991459;28;20374;-79
2021/01/13 00:05:50;;;;;;;11.75;3.35;;;;;;;;;;4992130;28;20361;-79
2021/01/13 00:08:16;;;;;;;11.38;3.22;;;;;;;;;;4991806;28;20848;-79
2021/01/13 00:10:42;;;;;;;13.73;3.17;;;;;;;;;;4991864;28;20456;-80
2021/01/13 00:13:08;;;;;;;10.63;3.25;;;;;;;;;;4991510;28;20471;-79
2021/01/13 00:15:34;;;;;;;12.30;3.00;;;;;;;;;;4990234;28;20412;-80
2021/01/13 00:18:00;;;;;;;12.75;3.17;;;;;;;;;;4991745;28;20365;-80
2021/01/13 00:20:26;;;;;;;10.57;2.60;;;;;;;;;;4990339;28;20476;-79
2021/01/13 00:22:52;;;;;;;10.80;3.10;;;;;;;;;;4990623;28;20760;-80
2021/01/13 00:25:18;;;;;;;12.70;2.80;;;;;;;;;;4994119;28;20380;-80
2021/01/13 00:27:44;;;;;;;10.55;2.80;;;;;;;;;;4993436;28;20377;-80
2021/01/13 00:30:10;;;;;;;12.32;2.90;;;;;;;;;;4990019;28;20753;-79
2021/01/13 00:32:36;;;;;;;9.77;2.63;;;;;;;;;;4990254;28;20373;-79
2021/01/13 00:35:02;;;;;;;12.70;3.00;;;;;;;;;;4990433;28;20435;-79
2021/01/13 00:37:28;;;;;;;10.88;2.85;;;;;;;;;;4991971;28;20395;-81
2021/01/13 00:39:54;;;;;;;11.93;3.05;;;;;;;;;;4991158;28;20746;-80
2021/01/13 00:42:20;;;;;;;10.87;3.00;;;;;;;;;;4990249;28;20373;-80
2021/01/13 00:44:46;;;;;;;13.48;3.10;;;;;;;;;;4991684;28;20368;-79
2021/01/13 00:47:15;;;;;;;9.02;2.75;;;;;;;;;;4991108;28;20444;-80
2021/01/13 00:49:42;;;;;;;12.53;3.00;;;;;;;;;;4991010;28;20447;-80
2021/01/13 00:52:09;;;;;;;12.57;3.78;;;;;;;;;;4990209;28;20368;-80
2021/01/13 00:54:35;;;;;;;13.43;3.17;;;;;;;;;;4990181;28;20372;-79
2021/01/13 00:57:01;;;;;;;13.32;3.20;;;;;;;;;;4990034;28;20377;-79
2021/01/13 00:59:27;;;;;;;10.68;3.35;;;;;;;;;;4991271;28;20880;-79
2021/01/13 01:01:53;;;;;;;11.75;3.72;;;;;;;;;;4989696;28;20381;-79
2021/01/13 01:04:19;;;;;;;13.75;3.63;;;;;;;;;;4990876;28;20364;-80
2021/01/13 01:06:49;;;;;;;11.55;3.35;;;;;;;;;;4991291;28;20369;-79
2021/01/13 01:09:15;;;;;;;16.27;4.07;;;;;;;;;;4990880;28;20371;-80
2021/01/13 01:11:41;;;;;;;12.90;4.07;;;;;;;;;;4991472;28;20403;-79
2021/01/13 01:14:08;;;;;;;13.10;4.22;;;;;;;;;;4990569;28;20373;-81
2021/01/13 01:16:39;;;;;;;11.07;3.90;;;;;;;;;;4989617;28;20505;-79
2021/01/13 01:19:05;;;;;;;10.18;4.00;;;;;;;;;;4989580;28;20864;-80
2021/01/13 01:21:31;;;;;;;13.88;4.40;;;;;;;;;;4991003;28;20365;-80
2021/01/13 01:23:57;;;;;;;14.52;4.72;;;;;;;;;;4990738;28;20388;-79
2021/01/13 01:26:23;;;;;;;15.25;5.07;;;;;;;;;;4991213;28;20455;-81
2021/01/13 01:28:49;;;;;;;15.10;4.90;;;;;;;;;;4991046;28;20361;-79
2021/01/13 01:31:16;;;;;;;16.98;5.25;;;;;;;;;;4990718;28;20367;-79
2021/01/13 01:33:42;;;;;;;13.00;4.85;;;;;;;;;;4992996;28;20431;-79
2021/01/13 01:36:09;;;;;;;12.68;4.78;;;;;;;;;;4994904;28;20411;-79
2021/01/13 01:38:35;;;;;;;14.00;4.45;;;;;;;;;;4993093;28;20388;-82
2021/01/13 01:41:05;;;;;;;15.13;4.50;;;;;;;;;;4994370;28;20412;-79
2021/01/13 01:43:31;;;;;;;14.32;4.50;;;;;;;;;;4994223;28;20452;-79
2021/01/13 01:45:57;;;;;;;11.93;4.85;;;;;;;;;;4994440;28;20365;-80
2021/01/13 01:48:23;;;;;;;13.07;4.40;;;;;;;;;;4994655;28;20369;-79
2021/01/13 01:50:50;;;;;;;13.65;4.38;;;;;;;;;;4992731;28;20373;-79
2021/01/13 01:53:35;;;;;;;12.70;4.85;;;;;;;;;;4994120;28;20367;-79
2021/01/13 01:56:13;;;;;;;10.55;4.20;;;;;;;;;;4992464;28;20494;-80
2021/01/13 01:58:39;;;;;;;14.30;4.85;;;;;;;;;;4994512;28;20373;-79
2021/01/13 02:01:06;;;;;;;14.13;4.55;;;;;;;;;;4992448;28;20369;-79
2021/01/13 02:03:32;;;;;;;14.90;5.55;;;;;;;;;;4994365;28;20860;-79
2021/01/13 02:05:59;;;;;;;12.05;4.47;;;;;;;;;;4992939;28;20412;-79
2021/01/13 02:08:25;;;;;;;16.73;4.90;;;;;;;;;;4993590;28;20365;-80
2021/01/13 02:10:52;;;;;;;14.25;4.90;;;;;;;;;;4993482;28;20392;-79
2021/01/13 02:13:21;;;;;;;14.75;4.63;;;;;;;;;;4993435;28;20882;-79
2021/01/13 02:15:48;;;;;;;11.60;4.40;;;;;;;;;;4993689;28;20412;-79
2021/01/13 02:18:17;;;;;;;14.75;5.00;;;;;;;;;;4992151;28;20376;-79
2021/01/13 02:20:44;;;;;;;13.70;4.80;;;;;;;;;;4993279;28;20364;-80
2021/01/13 02:23:19;;;;;;;12.30;4.05;;;;;;;;;;4991962;28;20848;-79
2021/01/13 02:26:17;;;;;;;11.13;4.57;;;;;;;;;;4994242;28;20365;-79
2021/01/13 02:28:52;;;;;;;12.27;4.20;;;;;;;;;;4992142;28;20369;-79
2021/01/13 02:31:36;;;;;;;13.35;4.47;;;;;;;;;;4993002;28;20872;-79
2021/01/13 02:34:20;;;;;;;11.97;4.53;;;;;;;;;;4993579;28;20367;-79
2021/01/13 02:37:06;;;;;;;14.95;4.43;;;;;;;;;;4991996;28;20452;-79
2021/01/13 02:39:34;;;;;;;14.87;4.80;;;;;;;;;;4942915;28;20780;-81
2021/01/13 02:42:00;;;;;;;14.57;4.90;;;;;;;;;;4991945;28;20852;-79
2021/01/13 02:44:30;;;;;;;13.00;4.88;;;;;;;;;;4990900;28;20872;-80
2021/01/13 02:46:56;;;;;;;13.15;4.15;;;;;;;;;;4991864;28;20848;-79
2021/01/13 02:49:52;;;;;;;13.30;4.38;;;;;;;;;;4992947;28;20388;-79
2021/01/13 02:52:19;;;;;;;15.25;5.32;;;;;;;;;;4976233;28;20515;-80
2021/01/13 02:54:50;;;;;;;12.27;4.40;;;;;;;;;;4992012;28;20404;-80
2021/01/13 02:57:19;;;;;;;13.73;5.00;;;;;;;;;;4993020;28;20373;-81
2021/01/13 02:59:47;;;;;;;17.77;4.97;;;;;;;;;;4992781;28;20369;-80
2021/01/13 03:02:14;;;;;;;12.07;4.38;;;;;;;;;;4991153;28;20369;-80
2021/01/13 03:04:41;;;;;;;12.45;4.97;;;;;;;;;;4992425;28;20385;-80
2021/01/13 03:07:12;;;;;;;16.10;5.25;;;;;;;;;;4992729;28;20368;-80
2021/01/13 03:09:38;;;;;;;16.08;4.60;;;;;;;;;;4992278;28;20369;-80
2021/01/13 03:12:12;;;;;;;13.45;4.80;;;;;;;;;;4992237;28;20361;-80
2021/01/13 03:14:40;;;;;;;14.95;4.72;;;;;;;;;;4992411;28;20366;-79
2021/01/13 03:17:10;;;;;;;13.15;4.55;;;;;;;;;;4992081;28;20392;-79
2021/01/13 03:19:43;;;;;;;11.30;4.20;;;;;;;;;;4992178;28;20825;-80
2021/01/13 03:22:17;;;;;;;15.68;4.60;;;;;;;;;;4992415;28;20431;-80
2021/01/13 03:25:09;;;;;;;10.77;4.30;;;;;;;;;;4992595;28;20415;-80
2021/01/13 03:27:36;;;;;;;11.23;4.30;;;;;;;;;;4988550;28;20387;-80
2021/01/13 03:30:06;;;;;;;13.13;4.30;;;;;;;;;;4991612;28;20477;-80
2021/01/13 03:32:37;;;;;;;11.65;4.30;;;;;;;;;;4992027;28;20400;-80
2021/01/13 03:35:03;;;;;;;10.80;4.00;;;;;;;;;;4990641;28;20491;-80
2021/01/13 03:37:42;;;;;;;11.57;4.07;;;;;;;;;;4992093;28;20468;-80
2021/01/13 03:40:08;;;;;;;12.02;4.07;;;;;;;;;;4991578;28;20353;-80
2021/01/13 03:42:36;;;;;;;14.20;4.47;;;;;;;;;;4991685;28;20847;-80
2021/01/13 03:45:06;;;;;;;11.05;4.55;;;;;;;;;;4990510;28;20419;-80
2021/01/13 03:47:41;;;;;;;15.40;4.97;;;;;;;;;;4992040;28;20373;-80
2021/01/13 03:50:19;;;;;;;13.88;4.78;;;;;;;;;;4989888;28;20388;-80
2021/01/13 03:52:59;;;;;;;12.07;4.40;;;;;;;;;;4990136;28;20377;-80
2021/01/13 03:55:26;;;;;;;13.27;4.47;;;;;;;;;;4991344;28;20392;-80
2021/01/13 03:57:58;;;;;;;11.32;4.70;;;;;;;;;;4990267;28;20377;-80
2021/01/13 04:00:27;;;;;;;17.10;5.25;;;;;;;;;;4989696;28;20721;-80
2021/01/13 04:03:08;;;;;;;15.20;4.83;;;;;;;;;;4989676;28;20408;-80
2021/01/13 04:05:36;;;;;;;15.20;5.20;;;;;;;;;;4990295;28;20389;-80
2021/01/13 04:08:03;;;;;;;13.80;5.30;;;;;;;;;;4991478;28;20503;-80
2021/01/13 04:10:29;;;;;;;10.30;4.85;;;;;;;;;;4990891;28;20381;-80
2021/01/13 04:13:02;;;;;;;13.68;5.22;;;;;;;;;;4991204;28;20368;-80
2021/01/13 04:15:35;;;;;;;15.25;5.85;;;;;;;;;;4989614;28;20404;-80
2021/01/13 04:18:04;;;;;;;14.88;5.20;;;;;;;;;;4991207;28;20888;-80
2021/01/13 04:20:30;;;;;;;12.63;5.40;;;;;;;;;;4990993;28;20369;-80
2021/01/13 04:22:56;;;;;;;14.15;5.38;;;;;;;;;;4990929;28;20368;-80
2021/01/13 04:25:22;;;;;;;13.93;5.40;;;;;;;;;;4991025;28;20377;-81
2021/01/13 04:27:49;;;;;;;13.93;5.50;;;;;;;;;;4991451;28;20443;-80
2021/01/13 04:30:15;;;;;;;14.40;5.80;;;;;;;;;;4990641;28;20373;-80
2021/01/13 04:32:41;;;;;;;15.85;5.28;;;;;;;;;;4990871;28;20447;-80
2021/01/13 04:35:08;;;;;;;14.05;5.78;;;;;;;;;;4989817;28;20926;-80
2021/01/13 04:37:35;;;;;;;15.43;5.90;;;;;;;;;;4990960;28;20477;-81
2021/01/13 04:40:18;;;;;;;16.05;6.30;;;;;;;;;;4989461;28;20384;-80
2021/01/13 04:42:59;;;;;;;14.95;5.90;;;;;;;;;;4991356;28;20701;-81
2021/01/13 04:45:34;;;;;;;14.75;5.43;;;;;;;;;;4991261;28;20416;-79
2021/01/13 04:48:04;;;;;;;12.73;5.30;;;;;;;;;;4991189;28;20373;-80
2021/01/13 04:50:33;;;;;;;12.40;5.30;;;;;;;;;;4990374;28;20399;-80
2021/01/13 04:53:00;;;;;;;11.60;5.28;;;;;;;;;;4990410;28;20392;-81
2021/01/13 04:55:29;;;;;;;12.95;5.20;;;;;;;;;;4989661;28;20401;-81
2021/01/13 04:58:17;;;;;;;12.50;5.10;;;;;;;;;;4989644;28;20369;-80
2021/01/13 05:00:55;;;;;;;11.48;4.60;;;;;;;;;;4990471;28;20376;-80
2021/01/13 05:03:44;;;;;;;14.13;4.90;;;;;;;;;;4989264;28;20384;-81
2021/01/13 05:06:28;;;;;;;13.63;5.23;;;;;;;;;;4990813;28;20374;-80
2021/01/13 05:09:04;;;;;;;14.40;5.63;;;;;;;;;;4993353;28;20839;-80
2021/01/13 05:11:38;;;;;;;14.18;4.55;;;;;;;;;;4994674;28;20369;-81
2021/01/13 05:14:04;;;;;;;9.30;4.28;;;;;;;;;;4994739;28;20369;-80
2021/01/13 05:16:39;;;;;;;15.50;5.05;;;;;;;;;;4994591;28;20396;-80
2021/01/13 05:19:06;;;;;;;10.82;4.43;;;;;;;;;;4994166;28;20357;-79
2021/01/13 05:21:34;;;;;;;9.27;4.32;;;;;;;;;;4994797;28;20405;-79
2021/01/13 05:24:01;;;;;;;12.90;5.07;;;;;;;;;;4993064;28;20468;-80
2021/01/13 05:26:27;;;;;;;13.70;5.25;;;;;;;;;;4994497;28;20376;-79
2021/01/13 05:29:05;;;;;;;13.10;5.05;;;;;;;;;;4993104;28;20868;-80
2021/01/13 05:31:33;;;;;;;12.13;4.72;;;;;;;;;;4993117;28;20384;-80
2021/01/13 05:34:01;;;;;;;13.73;5.40;;;;;;;;;;4992819;28;20376;-80
2021/01/13 05:36:30;;;;;;;14.02;5.00;;;;;;;;;;4994300;28;20495;-80
2021/01/13 05:39:25;;;;;;;14.70;5.43;;;;;;;;;;5007104;28;20832;-80
2021/01/13 05:41:51;;;;;;;15.05;5.40;;;;;;;;;;4996024;28;20399;-81
2021/01/13 05:44:18;;;;;;;14.40;5.28;;;;;;;;;;5012798;28;20881;-80
2021/01/13 05:46:48;;;;;;;15.48;5.43;;;;;;;;;;5013644;28;20375;-81
2021/01/13 05:49:15;;;;;;;13.85;5.38;;;;;;;;;;5010904;28;20395;-79
2021/01/13 05:51:44;;;;;;;12.63;5.32;;;;;;;;;;5013166;28;20379;-81
2021/01/13 05:54:16;;;;;;;15.18;5.60;;;;;;;;;;5013490;28;20438;-83
2021/01/13 05:56:42;;;;;;;13.40;5.18;;;;;;;;;;5011532;28;20896;-87
2021/01/13 05:59:09;;;;;;;14.00;5.30;;;;;;;;;;5011606;28;20375;-82
2021/01/13 06:01:45;;;;;;;15.40;5.18;;;;;;;;;;5012921;28;20371;-83
2021/01/13 06:04:11;;;;;;;11.45;5.00;;;;;;;;;;5012264;28;20379;-84
2021/01/13 06:06:56;;;;;;;15.88;5.55;;;;;;;;;;5004575;28;20709;-82
2021/01/13 06:09:23;;;;;;;17.85;4.95;;;;;;;;;;4992142;28;20385;-84
2021/01/13 06:11:51;;;;;;;20.48;5.28;;;;;;;;;;4993673;28;20708;-82
2021/01/13 06:14:22;;;;;;;16.17;4.90;;;;;;;;;;4992009;28;20374;-82
2021/01/13 06:16:49;;;;;;;17.45;4.93;;;;;;;;;;4992337;28;20899;-82
2021/01/13 06:19:16;;;;;;;14.77;5.40;;;;;;;;;;4992190;28;20361;-82
2021/01/13 06:21:44;;;;;;;10.93;4.80;;;;;;;;;;4996922;28;20454;-83
2021/01/13 06:24:19;;;;;;;12.77;4.97;;;;;;;;;;5012851;28;20375;-85
2021/01/13 06:26:52;;;;;;;14.38;4.95;;;;;;;;;;4993892;28;20389;-83
2021/01/13 06:29:24;;;;;;;14.27;4.85;;;;;;;;;;5012733;28;20390;-82
2021/01/13 06:31:56;;;;;;;20.02;5.65;;;;;;;;;;5012695;28;20367;-83
2021/01/13 06:34:36;;;;;;;16.45;5.78;;;;;;;;;;5012872;28;20454;-84
2021/01/13 06:37:32;;;;;;;17.27;5.30;;;;;;;;;;5011348;28;20880;-82
2021/01/13 06:39:58;;;;;;;17.55;5.03;;;;;;;;;;4993455;28;20866;-86
2021/01/13 06:42:30;;;;;;;18.17;5.03;;;;;;;;;;4974638;28;20420;-83
2021/01/13 06:44:57;;;;;;;17.17;5.88;;;;;;;;;;4991580;28;20472;-82
2021/01/13 06:47:26;;;;;;;15.32;5.03;;;;;;;;;;4992644;28;20368;-83
2021/01/13 06:49:52;;;;;;;13.43;5.18;;;;;;;;;;4992738;28;20365;-83
2021/01/13 06:52:29;;;;;;;15.75;5.15;;;;;;;;;;4993465;28;20468;-82
2021/01/13 06:54:55;;;;;;;16.00;4.88;;;;;;;;;;4993321;28;20401;-82
2021/01/13 06:57:26;;;;;;;13.20;4.43;;;;;;;;;;4991668;28;20461;-83
2021/01/13 06:59:53;;;;;;;17.60;5.28;;;;;;;;;;4992480;28;20401;-83
2021/01/13 07:02:29;;;;;;;13.90;4.60;;;;;;;;;;4992809;28;20783;-82
2021/01/13 07:04:55;;;;;;;11.75;3.92;;;;;;;;;;4993367;28;20365;-82
2021/01/13 07:07:21;;;;;;;12.18;3.95;;;;;;;;;;4993070;28;20464;-83
2021/01/13 07:09:51;;;;;;;10.60;3.78;;;;;;;;;;4992779;28;20372;-83
2021/01/13 07:12:18;;;;;;;10.65;3.85;;;;;;;;;;4992648;28;20369;-82
2021/01/13 07:14:49;;;;;;;14.05;4.05;;;;;;;;;;4991905;28;20385;-83
2021/01/13 07:17:19;;;;;;;12.97;4.00;;;;;;;;;;4992248;28;20412;-82
2021/01/13 07:19:49;;;;;;;13.93;4.30;;;;;;;;;;4992801;28;20372;-82
2021/01/13 07:22:16;;;;;;;12.10;4.32;;;;;;;;;;4991459;28;20480;-82
2021/01/13 07:24:43;;;;;;;13.07;4.20;;;;;;;;;;4992721;28;20372;-82
2021/01/13 07:27:09;;;;;;;12.57;3.92;;;;;;;;;;4992791;28;20776;-82
2021/01/13 07:29:35;;;;;;;11.57;3.85;;;;;;;;;;4992004;28;20379;-83
2021/01/13 07:32:03;;;;;;;9.18;3.75;;;;;;;;;;4992051;28;20365;-82
2021/01/13 07:34:42;;;;;;;13.55;4.22;;;;;;;;;;4991432;28;20460;-82
2021/01/13 07:37:08;;;;;;;10.45;4.10;;;;;;;;;;4991412;28;20411;-82
2021/01/13 07:39:53;;;;;;;11.80;3.55;;;;;;;;;;4994125;28;20456;-82
2021/01/13 07:42:34;;;;;;;11.30;3.80;;;;;;;;;;4992481;28;20369;-82
2021/01/13 07:45:07;;;;;;;11.07;3.97;;;;;;;;;;4992593;28;20373;-82
2021/01/13 07:47:52;;;;;;;9.63;3.40;;;;;;;;;;4991305;28;20395;-83
2021/01/13 07:50:18;;;;;;;14.55;4.20;;;;;;;;;;4992108;28;20457;-82
2021/01/13 07:52:44;;;;;;;13.30;4.10;;;;;;;;;;4992240;28;20438;-82
2021/01/13 07:55:15;;;;;;;12.98;4.28;;;;;;;;;;4992137;28;20404;-83
2021/01/13 07:57:53;;;;;;;12.10;4.03;;;;;;;;;;4992652;28;20447;-82
2021/01/13 08:00:19;;;;;;;9.80;4.32;;;;;;;;;;4991931;28;20376;-82
2021/01/13 08:02:48;;;;;;;11.55;3.78;;;;;;;;;;4990637;28;20443;-82
2021/01/13 08:05:23;;;;;;;9.65;4.03;;;;;;;;;;4990825;28;20377;-82
2021/01/13 08:08:08;;;;;;;11.13;4.20;;;;;;;;;;4992306;28;20855;-82
2021/01/13 08:10:38;;;;;;;9.77;4.13;;;;;;;;;;4991746;28;20457;-82
2021/01/13 08:13:09;;;;;;;11.80;4.43;;;;;;;;;;4992007;28;20372;-82
2021/01/13 08:15:45;;;;;;;11.55;4.30;;;;;;;;;;4992090;28;20935;-83
2021/01/13 08:18:12;;;;;;;11.63;4.10;;;;;;;;;;4991572;28;20439;-83
2021/01/13 08:20:39;;;;;;;10.55;3.92;;;;;;;;;;4989687;28;20752;-82
2021/01/13 08:23:10;;;;;;;10.27;3.57;;;;;;;;;;4989688;28;20380;-82
2021/01/13 08:25:44;;;;;;;10.90;3.43;;;;;;;;;;4991941;28;20400;-82
2021/01/13 08:28:12;;;;;;;10.40;3.75;;;;;;;;;;4990470;28;20380;-82
2021/01/13 08:30:41;;;;;;;12.07;3.63;;;;;;;;;;4990912;28;20381;-82
2021/01/13 08:33:10;;;;;;;10.57;3.63;;;;;;;;;;4991126;28;20373;-81
2021/01/13 08:35:37;;;;;;;8.70;3.35;;;;;;;;;;4990440;28;20436;-82
2021/01/13 08:38:10;;;;;;;8.00;3.15;;;;;;;;;;4991235;28;20385;-82
2021/01/13 08:40:37;;;;;;;11.75;3.40;;;;;;;;;;4991465;28;20460;-81
2021/01/13 08:43:10;;;;;;;9.30;3.43;;;;;;;;;;4990533;28;20449;-81
2021/01/13 08:45:37;;;;;;;10.68;3.30;;;;;;;;;;4991191;28;20369;-82
2021/01/13 08:48:13;;;;;;;9.65;2.85;;;;;;;;;;4991392;28;20369;-82
2021/01/13 08:50:40;;;;;;;11.25;3.55;;;;;;;;;;4989727;28;20422;-82
2021/01/13 08:53:07;;;;;;;8.95;3.00;;;;;;;;;;4990110;28;20788;-81
2021/01/13 08:55:33;;;;;;;10.18;3.10;;;;;;;;;;4991479;28;20401;-83
2021/01/13 08:58:00;;;;;;;12.07;3.35;;;;;;;;;;4992258;28;20369;-82
2021/01/13 09:00:26;;;;;;;12.77;3.80;;;;;;;;;;4989768;28;20369;-80
2021/01/13 09:02:58;;;;;;;11.55;3.25;;;;;;;;;;4991434;28;20387;-81
2021/01/13 09:05:34;;;;;;;11.65;2.83;;;;;;;;;;4991239;28;20385;-81
2021/01/13 09:08:02;;;;;;;8.10;3.13;;;;;;;;;;4991862;28;20827;-82
2021/01/13 09:10:47;;;;;;;11.13;3.25;;;;;;;;;;4992867;28;20451;-83
2021/01/13 09:13:32;;;;;;;8.32;3.30;;;;;;;;;;4992177;28;20365;-85
2021/01/13 09:15:59;;;;;;;6.07;2.80;;;;;;;;;;4993137;28;20393;-85
2021/01/13 09:18:25;;;;;;;8.32;3.17;;;;;;;;;;4992797;28;20368;-86
2021/01/13 09:20:51;;;;;;;8.85;3.00;;;;;;;;;;4992364;28;20445;-86
2021/01/13 09:23:23;;;;;;;11.13;3.00;;;;;;;;;;4992028;28;20437;-85
2021/01/13 09:25:55;;;;;;;10.55;3.30;;;;;;;;;;4989640;28;20369;-84
2021/01/13 09:28:21;;;;;;;7.53;2.88;;;;;;;;;;4989886;28;20405;-84
2021/01/13 09:30:48;;;;;;;7.97;2.50;;;;;;;;;;4991009;28;20370;-82
2021/01/13 09:33:19;;;;;;;7.72;2.60;;;;;;;;;;4991143;28;20388;-83
2021/01/13 09:35:46;;;;;;;7.72;2.63;;;;;;;;;;4990714;28;20405;-83
2021/01/13 09:38:16;;;;;;;10.68;2.88;;;;;;;;;;4990727;28;20393;-83
2021/01/13 09:40:51;;;;;;;8.60;2.78;;;;;;;;;;4990902;28;20364;-84
2021/01/13 09:43:24;;;;;;;10.15;3.10;;;;;;;;;;4990854;28;20459;-86
2021/01/13 09:45:51;;;;;;;7.00;2.63;;;;;;;;;;4995814;28;20748;-84
2021/01/13 09:48:20;;;;;;;7.77;2.80;;;;;;;;;;5008677;28;20846;-83
2021/01/13 09:50:46;;;;;;;8.60;2.45;;;;;;;;;;5007835;28;20470;-84
2021/01/13 09:53:13;;;;;;;5.57;2.60;;;;;;;;;;4994039;28;20369;-87
2021/01/13 09:55:39;;;;;;;5.73;2.70;;;;;;;;;;4994266;28;20403;-82
2021/01/13 09:58:16;;;;;;;6.32;2.65;;;;;;;;;;4994385;28;20370;-81
2021/01/13 10:00:42;;;;;;;6.00;2.75;;;;;;;;;;4993875;28;20369;-79
2021/01/13 10:03:10;;;;;;;5.60;2.30;;;;;;;;;;4996416;28;20525;-81
2021/01/13 10:05:37;;;;;;;5.00;2.58;;;;;;;;;;5002359;28;20414;-81
2021/01/13 10:08:03;;;;;;;6.60;2.60;;;;;;;;;;5001714;28;20381;-80
2021/01/13 10:10:29;;;;;;;5.20;2.45;;;;;;;;;;4999364;28;20373;-83
2021/01/13 10:12:57;;;;;;;5.88;2.40;;;;;;;;;;5001515;28;20396;-81
2021/01/13 10:15:23;;;;;;;6.35;2.80;;;;;;;;;;5001045;28;20400;-80
2021/01/13 10:17:49;;;;;;;6.80;2.72;;;;;;;;;;5002538;28;20411;-81
2021/01/13 10:20:24;;;;;;;7.25;2.78;;;;;;;;;;5004312;28;20456;-79
2021/01/13 10:22:52;;;;;;;8.68;2.80;;;;;;;;;;5001673;28;20371;-84
2021/01/13 10:25:28;;;;;;;8.97;2.87;;;;;;;;;;5002448;28;20465;-83
2021/01/13 10:27:54;;;;;;;6.15;2.80;;;;;;;;;;5000707;28;20380;-83
2021/01/13 10:30:20;;;;;;;7.15;2.90;;;;;;;;;;5008974;28;20363;-82
2021/01/13 10:32:50;;;;;;;9.48;2.97;;;;;;;;;;5001654;28;20870;-83
2021/01/13 10:35:18;;;;;;;10.07;3.55;;;;;;;;;;4997020;28;20878;-82
2021/01/13 10:37:54;;;;;;;7.68;3.15;;;;;;;;;;5002064;28;20391;-82
2021/01/13 10:40:21;;;;;;;8.77;3.03;;;;;;;;;;5015913;28;20375;-80
2021/01/13 10:42:51;;;;;;;6.07;2.38;;;;;;;;;;5001468;28;20373;-80
2021/01/13 10:45:18;;;;;;;10.15;3.03;;;;;;;;;;5003441;28;20478;-80
2021/01/13 10:47:57;;;;;;;10.43;2.67;;;;;;;;;;5002271;28;20429;-79
2021/01/13 10:50:25;;;;;;;8.77;2.95;;;;;;;;;;4997987;28;20433;-79
2021/01/13 10:52:53;;;;;;;7.57;2.58;;;;;;;;;;5004023;28;20437;-81
2021/01/13 10:55:20;;;;;;;7.93;3.15;;;;;;;;;;5002265;28;20829;-80
2021/01/13 10:57:49;;;;;;;10.35;2.78;;;;;;;;;;5004851;28;20389;-80
2021/01/13 11:00:16;;;;;;;8.47;3.27;;;;;;;;;;4998925;28;20373;-79
2021/01/13 11:02:50;;;;;;;8.18;3.33;;;;;;;;;;5004183;28;20373;-80
2021/01/13 11:05:17;;;;;;;9.98;2.72;;;;;;;;;;4996372;28;20461;-80
2021/01/13 11:07:43;;;;;;;12.43;3.00;;;;;;;;;;5003224;28;20407;-79
2021/01/13 11:10:11;;;;;;;7.27;2.60;;;;;;;;;;5000505;28;20901;-79
2021/01/13 11:12:37;;;;;;;8.10;3.00;;;;;;;;;;4995445;28;20434;-79
2021/01/13 11:15:05;;;;;;;7.32;2.67;;;;;;;;;;5001375;28;20444;-79
2021/01/13 11:17:32;;;;;;;9.63;3.03;;;;;;;;;;5000005;28;20431;-80
2021/01/13 11:19:59;;;;;;;6.80;2.45;;;;;;;;;;5002036;28;20373;-78
2021/01/13 11:22:44;;;;;;;7.07;2.72;;;;;;;;;;5002170;28;20837;-79
2021/01/13 11:25:33;;;;;;;6.57;2.60;;;;;;;;;;5003006;28;20458;-79
2021/01/13 11:28:01;;;;;;;8.15;2.78;;;;;;;;;;4998812;28;20791;-79
2021/01/13 11:30:27;;;;;;;10.93;3.05;;;;;;;;;;4998256;28;20389;-80
2021/01/13 11:32:54;;;;;;;9.05;2.92;;;;;;;;;;4998353;28;20881;-81
2021/01/13 11:35:27;;;;;;;7.97;2.50;;;;;;;;;;4978155;28;20443;-79
2021/01/13 11:38:05;;;;;;;6.50;2.70;;;;;;;;;;5003689;28;20387;-81
2021/01/13 11:40:50;;;;;;;11.77;2.80;;;;;;;;;;4981497;28;20401;-80
2021/01/13 11:43:19;;;;;;;9.13;2.92;;;;;;;;;;5003773;28;20383;-80
2021/01/13 11:45:49;;;;;;;6.40;2.10;;;;;;;;;;5001792;28;20406;-79
2021/01/13 11:48:18;;;;;;;6.90;2.95;;;;;;;;;;4998706;28;20460;-79
2021/01/13 11:50:46;;;;;;;9.32;2.78;;;;;;;;;;5001663;28;21093;-79
2021/01/13 11:53:20;;;;;;;7.60;2.83;;;;;;;;;;5002786;28;20719;-79
2021/01/13 11:55:46;;;;;;;9.80;2.72;;;;;;;;;;5000612;28;20411;-78
2021/01/13 11:58:16;;;;;;;7.55;2.60;;;;;;;;;;5000824;28;20846;-79
2021/01/13 12:00:42;;;;;;;8.88;2.92;;;;;;;;;;5001803;28;20766;-79
2021/01/13 12:03:09;;;;;;;7.65;2.90;;;;;;;;;;4999591;28;20374;-79
2021/01/13 12:05:38;;;;;;;8.05;2.90;;;;;;;;;;4991375;28;21141;-79
2021/01/13 12:08:05;;;;;;;8.85;2.80;;;;;;;;;;5004719;28;20391;-79
2021/01/13 12:10:32;;;;;;;7.10;2.67;;;;;;;;;;5002509;28;20371;-79
2021/01/13 12:13:15;;;;;;;9.32;3.20;;;;;;;;;;5003000;28;20378;-79
2021/01/13 12:15:56;;;;;;;8.00;2.35;;;;;;;;;;4997173;28;20495;-78
2021/01/13 12:18:24;;;;;;;8.70;2.90;;;;;;;;;;5002149;28;20383;-79
2021/01/13 12:20:51;;;;;;;12.25;3.05;;;;;;;;;;4997995;28;20377;-79
2021/01/13 12:23:21;;;;;;;8.98;2.70;;;;;;;;;;5000791;28;20874;-79
2021/01/13 12:25:47;;;;;;;8.43;2.80;;;;;;;;;;5000090;28;20390;-81
2021/01/13 12:28:14;;;;;;;12.15;3.03;;;;;;;;;;4998499;28;20394;-80
2021/01/13 12:30:56;;;;;;;10.60;3.30;;;;;;;;;;4998652;28;20391;-80
2021/01/13 12:33:22;;;;;;;8.02;2.88;;;;;;;;;;4994448;28;20368;-78
2021/01/13 12:35:48;;;;;;;10.05;2.78;;;;;;;;;;4998337;28;20408;-80
2021/01/13 12:38:14;;;;;;;8.35;2.88;;;;;;;;;;4999848;28;20740;-80
2021/01/13 12:40:40;;;;;;;9.02;2.83;;;;;;;;;;4999988;28;20382;-80
2021/01/13 12:43:14;;;;;;;6.93;2.75;;;;;;;;;;4997943;28;20400;-80
2021/01/13 12:45:39;;;;;;;9.30;3.17;;;;;;;;;;4997762;28;20938;-81
2021/01/13 12:48:06;;;;;;;9.20;2.60;;;;;;;;;;5001102;28;20432;-80
2021/01/13 12:50:32;;;;;;;8.88;2.80;;;;;;;;;;4998193;28;20368;-79
2021/01/13 12:52:58;;;;;;;10.17;2.60;;;;;;;;;;4997638;28;20452;-80
2021/01/13 12:55:24;;;;;;;9.95;2.92;;;;;;;;;;4996636;28;20755;-80
2021/01/13 12:57:50;;;;;;;9.88;3.20;;;;;;;;;;5000586;28;20420;-80
2021/01/13 13:00:16;;;;;;;11.68;3.33;;;;;;;;;;5002048;28;20367;-80
2021/01/13 13:02:42;;;;;;;10.27;4.30;;;;;;;;;;4997530;28;20390;-80
2021/01/13 13:05:09;;;;;;;11.27;3.97;;;;;;;;;;5002231;28;20371;-79
2021/01/13 13:07:35;;;;;;;8.83;3.63;;;;;;;;;;4997833;28;20376;-80
2021/01/13 13:10:04;;;;;;;7.90;3.50;;;;;;;;;;4997660;28;20398;-79
2021/01/13 13:12:30;;;;;;;7.57;3.22;;;;;;;;;;4997094;28;20387;-79
2021/01/13 13:14:56;;;;;;;10.27;3.85;;;;;;;;;;4996825;28;20460;-80
2021/01/13 13:17:22;;;;;;;9.30;3.20;;;;;;;;;;4997360;28;20369;-79
2021/01/13 13:19:49;;;;;;;10.40;3.30;;;;;;;;;;4996274;28;20499;-79
2021/01/13 13:22:15;;;;;;;9.55;3.90;;;;;;;;;;4998513;28;20381;-80
2021/01/13 13:24:41;;;;;;;10.17;3.40;;;;;;;;;;4999001;28;20372;-81
2021/01/13 13:27:08;;;;;;;9.90;3.83;;;;;;;;;;5000707;28;20420;-79
2021/01/13 13:29:35;;;;;;;10.53;3.73;;;;;;;;;;5001361;28;20403;-79
2021/01/13 13:32:01;;;;;;;10.23;3.58;;;;;;;;;;5008209;28;20382;-80
2021/01/13 13:34:27;;;;;;;10.83;3.70;;;;;;;;;;5002678;28;20767;-79
2021/01/13 13:37:00;;;;;;;12.60;4.50;;;;;;;;;;5009346;28;20399;-79
2021/01/13 13:39:26;;;;;;;12.55;3.72;;;;;;;;;;5004533;28;20390;-79
2021/01/13 13:41:59;;;;;;;10.27;4.00;;;;;;;;;;5002201;28;20375;-80
2021/01/13 13:44:29;;;;;;;10.57;3.72;;;;;;;;;;4998717;28;20860;-79
2021/01/13 13:46:55;;;;;;;10.45;3.90;;;;;;;;;;5005301;28;20383;-80
2021/01/13 13:49:21;;;;;;;9.38;3.92;;;;;;;;;;5009385;28;20403;-79
2021/01/13 13:51:47;;;;;;;9.63;3.92;;;;;;;;;;5012860;28;20465;-79
2021/01/13 13:54:13;;;;;;;10.80;4.07;;;;;;;;;;5011593;28;20379;-79
2021/01/13 13:56:39;;;;;;;9.25;3.75;;;;;;;;;;5013049;28;20793;-80
2021/01/13 13:59:05;;;;;;;9.63;3.90;;;;;;;;;;5011452;28;20391;-80
2021/01/13 14:01:31;;;;;;;10.48;3.80;;;;;;;;;;5012906;28;20375;-81
2021/01/13 14:03:58;;;;;;;10.57;3.95;;;;;;;;;;5012564;28;20375;-79
2021/01/13 14:06:24;;;;;;;10.75;3.97;;;;;;;;;;5013416;28;20383;-79
2021/01/13 14:08:50;;;;;;;9.68;4.20;;;;;;;;;;5013395;28;20375;-80
2021/01/13 14:11:16;;;;;;;10.93;4.07;;;;;;;;;;5012670;28;20451;-79
2021/01/13 14:13:42;;;;;;;7.72;3.60;;;;;;;;;;5001969;28;20416;-79
2021/01/13 14:16:08;;;;;;;9.10;3.50;;;;;;;;;;4998109;28;20406;-79
2021/01/13 14:18:34;;;;;;;10.43;3.50;;;;;;;;;;5001508;28;20412;-80
2021/01/13 14:21:01;;;;;;;10.23;3.85;;;;;;;;;;5002226;28;20379;-80
2021/01/13 14:23:27;;;;;;;10.98;3.65;;;;;;;;;;5003589;28;20881;-78
2021/01/13 14:25:53;;;;;;;6.65;3.38;;;;;;;;;;5005721;28;20848;-79
2021/01/13 14:28:19;;;;;;;10.20;3.73;;;;;;;;;;5001233;28;20977;-79
2021/01/13 14:30:45;;;;;;;9.70;3.75;;;;;;;;;;5005999;28;20371;-80
2021/01/13 14:33:11;;;;;;;11.30;3.83;;;;;;;;;;5001221;28;20404;-78
2021/01/13 14:35:37;;;;;;;9.17;3.33;;;;;;;;;;5001258;28;20442;-80
2021/01/13 14:38:03;;;;;;;10.90;3.55;;;;;;;;;;5003400;28;20718;-78
2021/01/13 14:40:29;;;;;;;8.02;3.17;;;;;;;;;;5000523;28;20365;-79
2021/01/13 14:42:55;;;;;;;10.13;3.35;;;;;;;;;;5005250;28;20807;-79
2021/01/13 14:45:28;;;;;;;8.52;3.17;;;;;;;;;;5001446;28;20859;-80
2021/01/13 14:47:58;;;;;;;10.30;4.28;;;;;;;;;;5007174;28;20382;-81